sensor_id;sensor_type;location;lat;lon;timestamp;pressure;altitude;pressure_sealevel;temperature;humidity
72921;BME280;61064;51.654;5.476;2022-12-07T00:01:23;101837.91;;;3.99;88.41
72921;BME280;61064;51.654;5.476;2022-12-07T00:03:52;101847.53;;;3.98;88.59
72921;BME280;61064;51.654;5.476;2022-12-07T00:06:22;101906.44;;;4.36;88.61
72921;BME280;61064;51.654;5.476;2022-12-07T00:08:49;101862.00;;;4.06;88.26
72921;BME280;61064;51.654;5.476;2022-12-07T00:11:18;101884.50;;;4.17;88.34
72921;BME280;61064;51.654;5.476;2022-12-07T00:13:44;101909.53;;;4.27;88.33
72921;BME280;61064;51.654;5.476;2022-12-07T00:16:15;101851.16;;;4.00;88.77
72921;BME280;61064;51.654;5.476;2022-12-07T00:18:44;101861.31;;;4.10;88.51
72921;BME280;61064;51.654;5.476;2022-12-07T00:21:24;101820.53;;;3.85;88.79
72921;BME280;61064;51.654;5.476;2022-12-07T00:23:57;101875.59;;;4.15;88.39
72921;BME280;61064;51.654;5.476;2022-12-07T00:26:28;101853.13;;;4.04;88.67
72921;BME280;61064;51.654;5.476;2022-12-07T00:29:00;101850.25;;;4.00;88.83
72921;BME280;61064;51.654;5.476;2022-12-07T00:31:28;101886.28;;;4.18;88.77
72921;BME280;61064;51.654;5.476;2022-12-07T00:33:55;101855.75;;;4.04;88.75
72921;BME280;61064;51.654;5.476;2022-12-07T00:36:24;101831.22;;;3.88;88.76
72921;BME280;61064;51.654;5.476;2022-12-07T00:38:50;101810.56;;;3.78;88.69
72921;BME280;61064;51.654;5.476;2022-12-07T00:41:21;101879.53;;;4.06;88.85
72921;BME280;61064;51.654;5.476;2022-12-07T00:43:48;101848.75;;;3.87;88.95
72921;BME280;61064;51.654;5.476;2022-12-07T00:46:15;101818.16;;;3.71;88.67
72921;BME280;61064;51.654;5.476;2022-12-07T00:48:44;101855.44;;;3.98;88.75
72921;BME280;61064;51.654;5.476;2022-12-07T00:51:22;101851.69;;;3.93;88.79
72921;BME280;61064;51.654;5.476;2022-12-07T00:53:51;101819.78;;;3.69;88.95
72921;BME280;61064;51.654;5.476;2022-12-07T00:56:23;101854.22;;;3.92;88.84
72921;BME280;61064;51.654;5.476;2022-12-07T00:58:57;101859.41;;;3.90;89.06
72921;BME280;61064;51.654;5.476;2022-12-07T01:01:35;101803.63;;;3.62;88.93
72921;BME280;61064;51.654;5.476;2022-12-07T01:04:03;101813.25;;;3.61;88.78
72921;BME280;61064;51.654;5.476;2022-12-07T01:06:31;101799.72;;;3.54;88.88
72921;BME280;61064;51.654;5.476;2022-12-07T01:09:00;101825.97;;;3.70;88.90
72921;BME280;61064;51.654;5.476;2022-12-07T01:11:28;101879.81;;;3.94;89.15
72921;BME280;61064;51.654;5.476;2022-12-07T01:13:57;101804.16;;;3.55;88.85
72921;BME280;61064;51.654;5.476;2022-12-07T01:16:26;101887.56;;;3.91;88.84
72921;BME280;61064;51.654;5.476;2022-12-07T01:18:54;101819.63;;;3.49;88.87
72921;BME280;61064;51.654;5.476;2022-12-07T01:21:25;101817.72;;;3.46;88.93
72921;BME280;61064;51.654;5.476;2022-12-07T01:23:52;101833.00;;;3.53;88.98
72921;BME280;61064;51.654;5.476;2022-12-07T01:26:21;101844.66;;;3.58;89.31
72921;BME280;61064;51.654;5.476;2022-12-07T01:28:47;101856.63;;;3.69;89.56
72921;BME280;61064;51.654;5.476;2022-12-07T01:31:18;101848.28;;;3.60;89.49
72921;BME280;61064;51.654;5.476;2022-12-07T01:33:46;101885.59;;;3.87;89.54
72921;BME280;61064;51.654;5.476;2022-12-07T01:36:15;101860.47;;;3.76;89.64
72921;BME280;61064;51.654;5.476;2022-12-07T01:38:42;101847.78;;;3.67;89.43
72921;BME280;61064;51.654;5.476;2022-12-07T01:41:08;101835.28;;;3.63;89.54
72921;BME280;61064;51.654;5.476;2022-12-07T01:43:34;101839.13;;;3.70;89.23
72921;BME280;61064;51.654;5.476;2022-12-07T01:46:01;101814.50;;;3.52;89.38
72921;BME280;61064;51.654;5.476;2022-12-07T01:48:47;101814.91;;;3.59;89.68
72921;BME280;61064;51.654;5.476;2022-12-07T01:51:13;101871.03;;;3.94;89.25
72921;BME280;61064;51.654;5.476;2022-12-07T01:53:43;101852.88;;;3.82;89.33
72921;BME280;61064;51.654;5.476;2022-12-07T01:56:12;101815.13;;;3.64;89.51
72921;BME280;61064;51.654;5.476;2022-12-07T01:58:40;101852.19;;;3.86;89.50
72921;BME280;61064;51.654;5.476;2022-12-07T02:01:06;101826.03;;;3.71;89.56
72921;BME280;61064;51.654;5.476;2022-12-07T02:03:37;101819.25;;;3.59;89.27
72921;BME280;61064;51.654;5.476;2022-12-07T02:06:05;101825.22;;;3.72;89.40
72921;BME280;61064;51.654;5.476;2022-12-07T02:08:32;101878.16;;;3.96;89.59
72921;BME280;61064;51.654;5.476;2022-12-07T02:10:58;101819.56;;;3.65;89.44
72921;BME280;61064;51.654;5.476;2022-12-07T02:13:26;101853.63;;;3.80;89.40
72921;BME280;61064;51.654;5.476;2022-12-07T02:32:32;101879.81;;;3.76;89.59
72921;BME280;61064;51.654;5.476;2022-12-07T02:35:17;101843.63;;;3.55;89.34
72921;BME280;61064;51.654;5.476;2022-12-07T02:38:19;101877.84;;;3.72;89.52
72921;BME280;61064;51.654;5.476;2022-12-07T02:44:00;101797.34;;;3.24;89.29
72921;BME280;61064;51.654;5.476;2022-12-07T02:46:31;101813.66;;;3.35;89.53
72921;BME280;61064;51.654;5.476;2022-12-07T02:48:58;101823.28;;;3.34;89.09
72921;BME280;61064;51.654;5.476;2022-12-07T02:51:25;101801.56;;;3.21;89.16
72921;BME280;61064;51.654;5.476;2022-12-07T02:53:50;101837.50;;;3.38;89.48
72921;BME280;61064;51.654;5.476;2022-12-07T03:02:06;101875.19;;;3.55;89.33
72921;BME280;61064;51.654;5.476;2022-12-07T03:04:42;101883.09;;;3.55;89.43
72921;BME280;61064;51.654;5.476;2022-12-07T03:08:11;101872.56;;;3.55;89.44
72921;BME280;61064;51.654;5.476;2022-12-07T03:16:02;101851.56;;;3.39;89.66
72921;BME280;61064;51.654;5.476;2022-12-07T03:19:21;101806.50;;;3.15;89.68
72921;BME280;61064;51.654;5.476;2022-12-07T03:21:40;101876.09;;;3.55;89.65
72921;BME280;61064;51.654;5.476;2022-12-07T03:24:16;101862.75;;;3.52;89.42
72921;BME280;61064;51.654;5.476;2022-12-07T03:26:48;101874.50;;;3.59;89.75
72921;BME280;61064;51.654;5.476;2022-12-07T03:29:34;101846.75;;;3.48;89.80
72921;BME280;61064;51.654;5.476;2022-12-07T03:32:08;101838.88;;;3.48;89.78
72921;BME280;61064;51.654;5.476;2022-12-07T03:34:46;101798.25;;;3.25;90.02
72921;BME280;61064;51.654;5.476;2022-12-07T03:37:19;101819.47;;;3.46;89.70
72921;BME280;61064;51.654;5.476;2022-12-07T03:42:20;101820.75;;;3.54;89.84
72921;BME280;61064;51.654;5.476;2022-12-07T03:44:49;101844.47;;;3.71;90.10
72921;BME280;61064;51.654;5.476;2022-12-07T03:50:06;101849.25;;;3.80;90.14
72921;BME280;61064;51.654;5.476;2022-12-07T03:52:40;101856.44;;;3.83;89.99
72921;BME280;61064;51.654;5.476;2022-12-07T03:58:09;101823.25;;;3.68;90.00
72921;BME280;61064;51.654;5.476;2022-12-07T04:00:39;101814.44;;;3.68;89.90
72921;BME280;61064;51.654;5.476;2022-12-07T04:03:08;101840.03;;;3.88;90.22
72921;BME280;61064;51.654;5.476;2022-12-07T04:05:37;101813.91;;;3.75;89.89
72921;BME280;61064;51.654;5.476;2022-12-07T04:08:04;101836.28;;;3.83;90.15
72921;BME280;61064;51.654;5.476;2022-12-07T04:10:30;101841.84;;;3.89;89.93
72921;BME280;61064;51.654;5.476;2022-12-07T04:12:59;101800.25;;;3.64;89.80
72921;BME280;61064;51.654;5.476;2022-12-07T04:15:24;101809.34;;;3.71;89.76
72921;BME280;61064;51.654;5.476;2022-12-07T04:17:50;101800.41;;;3.67;90.08
72921;BME280;61064;51.654;5.476;2022-12-07T04:20:16;101861.69;;;4.00;90.18
72921;BME280;61064;51.654;5.476;2022-12-07T04:22:45;101865.25;;;4.01;90.15
72921;BME280;61064;51.654;5.476;2022-12-07T04:25:11;101823.03;;;3.82;90.17
72921;BME280;61064;51.654;5.476;2022-12-07T04:27:37;101835.59;;;3.87;90.04
72921;BME280;61064;51.654;5.476;2022-12-07T04:30:03;101823.94;;;3.82;90.14
72921;BME280;61064;51.654;5.476;2022-12-07T04:32:29;101859.19;;;4.03;89.90
72921;BME280;61064;51.654;5.476;2022-12-07T04:34:55;101838.44;;;3.92;89.80
72921;BME280;61064;51.654;5.476;2022-12-07T04:37:20;101826.88;;;3.88;90.10
72921;BME280;61064;51.654;5.476;2022-12-07T04:39:46;101818.16;;;3.89;90.15
72921;BME280;61064;51.654;5.476;2022-12-07T04:42:12;101845.94;;;4.02;90.08
72921;BME280;61064;51.654;5.476;2022-12-07T04:44:38;101782.00;;;3.67;90.14
72921;BME280;61064;51.654;5.476;2022-12-07T04:47:06;101785.66;;;3.71;90.08
72921;BME280;61064;51.654;5.476;2022-12-07T04:49:32;101819.06;;;3.90;89.95
72921;BME280;61064;51.654;5.476;2022-12-07T04:51:58;101799.81;;;3.73;89.80
72921;BME280;61064;51.654;5.476;2022-12-07T04:54:26;101767.47;;;3.58;89.79
72921;BME280;61064;51.654;5.476;2022-12-07T04:56:54;101780.59;;;3.58;89.80
72921;BME280;61064;51.654;5.476;2022-12-07T04:59:26;101768.88;;;3.51;89.85
72921;BME280;61064;51.654;5.476;2022-12-07T05:02:16;101816.63;;;3.76;89.88
72921;BME280;61064;51.654;5.476;2022-12-07T05:05:15;101806.72;;;3.71;89.80
72921;BME280;61064;51.654;5.476;2022-12-07T05:07:40;101759.84;;;3.46;89.86
72921;BME280;61064;51.654;5.476;2022-12-07T05:10:06;101787.84;;;3.62;89.85
72921;BME280;61064;51.654;5.476;2022-12-07T05:12:32;101831.00;;;3.83;89.88
72921;BME280;61064;51.654;5.476;2022-12-07T05:14:58;101833.34;;;3.77;90.05
72921;BME280;61064;51.654;5.476;2022-12-07T05:17:24;101806.00;;;3.57;89.72
72921;BME280;61064;51.654;5.476;2022-12-07T05:19:49;101797.75;;;3.50;89.96
72921;BME280;61064;51.654;5.476;2022-12-07T05:22:15;101811.06;;;3.53;90.09
72921;BME280;61064;51.654;5.476;2022-12-07T05:24:40;101827.16;;;3.59;89.87
72921;BME280;61064;51.654;5.476;2022-12-07T05:27:09;101769.50;;;3.28;89.96
72921;BME280;61064;51.654;5.476;2022-12-07T05:29:34;101830.00;;;3.63;90.12
72921;BME280;61064;51.654;5.476;2022-12-07T05:32:00;101842.66;;;3.70;89.97
72921;BME280;61064;51.654;5.476;2022-12-07T05:34:29;101781.97;;;3.32;89.92
72921;BME280;61064;51.654;5.476;2022-12-07T05:36:54;101809.34;;;3.53;90.35
72921;BME280;61064;51.654;5.476;2022-12-07T05:39:20;101775.69;;;3.30;89.90
72921;BME280;61064;51.654;5.476;2022-12-07T05:41:48;101809.34;;;3.53;90.16
72921;BME280;61064;51.654;5.476;2022-12-07T05:44:33;101762.19;;;3.22;89.94
72921;BME280;61064;51.654;5.476;2022-12-07T05:46:58;101807.06;;;3.43;90.05
72921;BME280;61064;51.654;5.476;2022-12-07T05:49:26;101794.81;;;3.44;89.85
72921;BME280;61064;51.654;5.476;2022-12-07T05:51:51;101832.50;;;3.60;89.91
72921;BME280;61064;51.654;5.476;2022-12-07T05:54:17;101801.22;;;3.49;89.79
72921;BME280;61064;51.654;5.476;2022-12-07T05:56:42;101819.25;;;3.59;89.90
72921;BME280;61064;51.654;5.476;2022-12-07T05:59:08;101823.53;;;3.57;90.13
72921;BME280;61064;51.654;5.476;2022-12-07T06:01:51;101748.66;;;3.15;89.85
72921;BME280;61064;51.654;5.476;2022-12-07T06:04:17;101824.28;;;3.54;90.07
72921;BME280;61064;51.654;5.476;2022-12-07T06:06:42;101788.81;;;3.28;89.93
72921;BME280;61064;51.654;5.476;2022-12-07T06:09:07;101806.97;;;3.42;90.08
72921;BME280;61064;51.654;5.476;2022-12-07T06:11:33;101818.31;;;3.41;90.10
72921;BME280;61064;51.654;5.476;2022-12-07T06:14:17;101799.38;;;3.30;90.15
72921;BME280;61064;51.654;5.476;2022-12-07T06:16:42;101827.13;;;3.41;89.83
72921;BME280;61064;51.654;5.476;2022-12-07T06:19:08;101819.69;;;3.32;90.05
72921;BME280;61064;51.654;5.476;2022-12-07T06:21:33;101834.78;;;3.37;89.79
72921;BME280;61064;51.654;5.476;2022-12-07T06:23:59;101829.22;;;3.30;89.76
72921;BME280;61064;51.654;5.476;2022-12-07T06:26:24;101833.78;;;3.34;89.81
72921;BME280;61064;51.654;5.476;2022-12-07T06:28:49;101793.13;;;3.10;90.04
72921;BME280;61064;51.654;5.476;2022-12-07T06:31:15;101804.00;;;3.18;90.32
72921;BME280;61064;51.654;5.476;2022-12-07T06:33:41;101840.88;;;3.35;90.04
72921;BME280;61064;51.654;5.476;2022-12-07T06:36:08;101787.84;;;3.10;90.16
72921;BME280;61064;51.654;5.476;2022-12-07T06:38:33;101789.50;;;3.08;89.98
72921;BME280;61064;51.654;5.476;2022-12-07T06:40:59;101816.56;;;3.23;90.22
72921;BME280;61064;51.654;5.476;2022-12-07T06:43:24;101833.66;;;3.31;90.34
72921;BME280;61064;51.654;5.476;2022-12-07T06:45:50;101834.66;;;3.33;90.28
72921;BME280;61064;51.654;5.476;2022-12-07T06:48:16;101780.56;;;3.05;89.96
72921;BME280;61064;51.654;5.476;2022-12-07T06:50:44;101798.19;;;3.07;89.95
72921;BME280;61064;51.654;5.476;2022-12-07T06:53:12;101796.66;;;3.11;90.16
72921;BME280;61064;51.654;5.476;2022-12-07T06:55:38;101760.47;;;2.89;90.01
72921;BME280;61064;51.654;5.476;2022-12-07T06:58:03;101798.88;;;3.03;90.28
72921;BME280;61064;51.654;5.476;2022-12-07T07:00:29;101823.16;;;3.15;90.29
72921;BME280;61064;51.654;5.476;2022-12-07T07:02:54;101842.03;;;3.24;90.22
72921;BME280;61064;51.654;5.476;2022-12-07T07:05:20;101827.75;;;3.19;90.13
72921;BME280;61064;51.654;5.476;2022-12-07T07:07:48;101811.66;;;3.13;90.21
72921;BME280;61064;51.654;5.476;2022-12-07T07:10:14;101771.88;;;2.89;90.08
72921;BME280;61064;51.654;5.476;2022-12-07T07:12:40;101812.41;;;3.11;90.05
72921;BME280;61064;51.654;5.476;2022-12-07T07:15:05;101770.97;;;2.89;90.26
72921;BME280;61064;51.654;5.476;2022-12-07T07:17:31;101801.91;;;3.11;90.44
72921;BME280;61064;51.654;5.476;2022-12-07T07:19:56;101840.63;;;3.31;90.21
72921;BME280;61064;51.654;5.476;2022-12-07T07:22:22;101845.22;;;3.35;90.28
72921;BME280;61064;51.654;5.476;2022-12-07T07:24:47;101843.59;;;3.37;90.55
72921;BME280;61064;51.654;5.476;2022-12-07T07:27:15;101836.59;;;3.38;90.23
72921;BME280;61064;51.654;5.476;2022-12-07T07:29:41;101803.84;;;3.15;90.28
72921;BME280;61064;51.654;5.476;2022-12-07T07:32:06;101786.78;;;3.07;90.16
72921;BME280;61064;51.654;5.476;2022-12-07T07:34:33;101842.69;;;3.37;90.09
72921;BME280;61064;51.654;5.476;2022-12-07T07:36:58;101835.47;;;3.32;90.12
72921;BME280;61064;51.654;5.476;2022-12-07T07:39:24;101843.50;;;3.35;90.33
72921;BME280;61064;51.654;5.476;2022-12-07T07:41:49;101839.91;;;3.33;90.28
72921;BME280;61064;51.654;5.476;2022-12-07T07:44:15;101818.38;;;3.24;90.39
72921;BME280;61064;51.654;5.476;2022-12-07T07:46:40;101827.25;;;3.26;90.44
72921;BME280;61064;51.654;5.476;2022-12-07T07:49:06;101860.41;;;3.41;90.26
72921;BME280;61064;51.654;5.476;2022-12-07T07:51:31;101820.84;;;3.21;90.22
72921;BME280;61064;51.654;5.476;2022-12-07T07:53:57;101771.53;;;3.00;90.56
72921;BME280;61064;51.654;5.476;2022-12-07T07:56:23;101830.56;;;3.22;90.45
72921;BME280;61064;51.654;5.476;2022-12-07T07:58:52;101850.75;;;3.40;90.54
72921;BME280;61064;51.654;5.476;2022-12-07T08:01:17;101843.34;;;3.32;90.11
72921;BME280;61064;51.654;5.476;2022-12-07T08:03:44;101855.16;;;3.41;90.16
72921;BME280;61064;51.654;5.476;2022-12-07T08:06:13;101847.94;;;3.37;90.07
72921;BME280;61064;51.654;5.476;2022-12-07T08:08:38;101825.63;;;3.28;90.37
72921;BME280;61064;51.654;5.476;2022-12-07T08:11:07;101848.16;;;3.41;90.04
72921;BME280;61064;51.654;5.476;2022-12-07T08:13:34;101836.28;;;3.31;90.22
72921;BME280;61064;51.654;5.476;2022-12-07T08:16:04;101856.22;;;3.44;90.16
72921;BME280;61064;51.654;5.476;2022-12-07T08:18:29;101816.66;;;3.25;90.51
72921;BME280;61064;51.654;5.476;2022-12-07T08:20:59;101816.56;;;3.23;90.51
72921;BME280;61064;51.654;5.476;2022-12-07T08:23:26;101853.97;;;3.52;90.71
72921;BME280;61064;51.654;5.476;2022-12-07T08:25:51;101788.00;;;3.13;90.31
72921;BME280;61064;51.654;5.476;2022-12-07T08:28:17;101815.25;;;3.31;90.50
72921;BME280;61064;51.654;5.476;2022-12-07T08:30:42;101844.34;;;3.52;90.38
72921;BME280;61064;51.654;5.476;2022-12-07T08:33:09;101857.09;;;3.61;90.22
72921;BME280;61064;51.654;5.476;2022-12-07T08:35:35;101866.19;;;3.67;90.59
72921;BME280;61064;51.654;5.476;2022-12-07T08:38:01;101842.63;;;3.53;90.44
72921;BME280;61064;51.654;5.476;2022-12-07T08:40:27;101869.09;;;3.73;90.28
72921;BME280;61064;51.654;5.476;2022-12-07T08:42:53;101873.63;;;3.76;90.25
72921;BME280;61064;51.654;5.476;2022-12-07T08:45:19;101871.75;;;3.73;90.30
72921;BME280;61064;51.654;5.476;2022-12-07T08:48:02;101866.66;;;3.76;90.21
72921;BME280;61064;51.654;5.476;2022-12-07T08:50:29;101837.84;;;3.62;90.21
72921;BME280;61064;51.654;5.476;2022-12-07T08:52:58;101791.97;;;3.39;90.03
72921;BME280;61064;51.654;5.476;2022-12-07T08:55:24;101813.47;;;3.48;90.11
72921;BME280;61064;51.654;5.476;2022-12-07T08:57:51;101866.78;;;3.80;90.06
72921;BME280;61064;51.654;5.476;2022-12-07T09:00:17;101857.84;;;3.76;90.24
72921;BME280;61064;51.654;5.476;2022-12-07T09:02:46;101854.22;;;3.74;90.28
72921;BME280;61064;51.654;5.476;2022-12-07T09:05:12;101810.53;;;3.60;90.16
72921;BME280;61064;51.654;5.476;2022-12-07T09:07:41;101852.88;;;3.82;89.95
72921;BME280;61064;51.654;5.476;2022-12-07T09:10:08;101854.84;;;3.86;90.42
72921;BME280;61064;51.654;5.476;2022-12-07T09:12:34;101788.88;;;3.48;90.12
72921;BME280;61064;51.654;5.476;2022-12-07T09:14:59;101783.53;;;3.46;90.19
72921;BME280;61064;51.654;5.476;2022-12-07T09:17:26;101803.25;;;3.54;90.24
72921;BME280;61064;51.654;5.476;2022-12-07T09:19:51;101855.06;;;3.91;90.54
72921;BME280;61064;51.654;5.476;2022-12-07T09:22:17;101855.31;;;3.95;90.52
72921;BME280;61064;51.654;5.476;2022-12-07T09:24:42;101832.81;;;3.84;90.17
72921;BME280;61064;51.654;5.476;2022-12-07T09:27:09;101854.84;;;4.04;90.39
72921;BME280;61064;51.654;5.476;2022-12-07T09:29:35;101846.81;;;4.01;90.28
72921;BME280;61064;51.654;5.476;2022-12-07T09:32:00;101788.13;;;3.68;90.29
72921;BME280;61064;51.654;5.476;2022-12-07T09:34:26;101866.78;;;4.15;90.16
72921;BME280;61064;51.654;5.476;2022-12-07T09:36:52;101868.91;;;4.22;90.13
72921;BME280;61064;51.654;5.476;2022-12-07T09:39:17;101858.50;;;4.25;90.01
72921;BME280;61064;51.654;5.476;2022-12-07T09:41:44;101860.53;;;4.31;90.04
72921;BME280;61064;51.654;5.476;2022-12-07T09:44:12;101838.81;;;4.17;90.03
72921;BME280;61064;51.654;5.476;2022-12-07T09:46:40;101804.94;;;4.07;90.16
72921;BME280;61064;51.654;5.476;2022-12-07T09:49:16;101858.28;;;4.38;89.86
72921;BME280;61064;51.654;5.476;2022-12-07T09:51:44;101842.47;;;4.38;89.83
72921;BME280;61064;51.654;5.476;2022-12-07T09:54:13;101819.78;;;4.23;90.20
72921;BME280;61064;51.654;5.476;2022-12-07T09:56:40;101848.94;;;4.45;89.91
72921;BME280;61064;51.654;5.476;2022-12-07T09:59:05;101844.59;;;4.47;90.09
72921;BME280;61064;51.654;5.476;2022-12-07T10:01:32;101854.69;;;4.55;90.08
72921;BME280;61064;51.654;5.476;2022-12-07T10:04:14;101855.31;;;4.69;90.27
72921;BME280;61064;51.654;5.476;2022-12-07T10:06:41;101839.47;;;4.68;90.01
72921;BME280;61064;51.654;5.476;2022-12-07T10:09:14;101854.34;;;4.86;90.12
72921;BME280;61064;51.654;5.476;2022-12-07T10:12:06;101860.00;;;4.94;89.78
72921;BME280;61064;51.654;5.476;2022-12-07T10:14:36;101831.81;;;4.93;89.79
72921;BME280;61064;51.654;5.476;2022-12-07T10:17:30;101826.25;;;5.06;89.75
72921;BME280;61064;51.654;5.476;2022-12-07T10:22:34;101827.31;;;5.30;89.93
72921;BME280;61064;51.654;5.476;2022-12-07T10:25:08;101823.34;;;5.40;89.89
72921;BME280;61064;51.654;5.476;2022-12-07T10:27:33;101783.34;;;5.31;89.49
72921;BME280;61064;51.654;5.476;2022-12-07T10:29:59;101831.09;;;5.56;89.39
72921;BME280;61064;51.654;5.476;2022-12-07T10:32:34;101823.28;;;5.59;89.54
72921;BME280;61064;51.654;5.476;2022-12-07T10:35:25;101825.69;;;5.74;89.46
72921;BME280;61064;51.654;5.476;2022-12-07T10:37:52;101823.25;;;5.80;89.20
72921;BME280;61064;51.654;5.476;2022-12-07T10:40:33;101817.28;;;5.84;89.47
72921;BME280;61064;51.654;5.476;2022-12-07T10:43:24;101816.50;;;5.86;89.17
72921;BME280;61064;51.654;5.476;2022-12-07T10:51:41;101803.41;;;5.88;88.99
72921;BME280;61064;51.654;5.476;2022-12-07T11:00:03;101808.22;;;5.98;88.97
72921;BME280;61064;51.654;5.476;2022-12-07T11:05:48;101793.63;;;6.08;88.72
72921;BME280;61064;51.654;5.476;2022-12-07T11:11:33;101752.88;;;6.01;88.90
72921;BME280;61064;51.654;5.476;2022-12-07T11:14:05;101789.06;;;6.26;88.66
72921;BME280;61064;51.654;5.476;2022-12-07T11:16:48;101777.66;;;6.27;88.56
72921;BME280;61064;51.654;5.476;2022-12-07T11:22:04;101755.91;;;6.34;88.44
72921;BME280;61064;51.654;5.476;2022-12-07T11:27:37;101760.94;;;6.50;88.08
72921;BME280;61064;51.654;5.476;2022-12-07T11:30:14;101754.59;;;6.47;88.09
72921;BME280;61064;51.654;5.476;2022-12-07T11:35:15;101756.72;;;6.55;87.73
72921;BME280;61064;51.654;5.476;2022-12-07T11:37:44;101764.66;;;6.55;87.80
72921;BME280;61064;51.654;5.476;2022-12-07T11:40:26;101717.19;;;6.35;88.11
72921;BME280;61064;51.654;5.476;2022-12-07T11:43:15;101726.19;;;6.41;87.65
72921;BME280;61064;51.654;5.476;2022-12-07T11:45:47;101726.34;;;6.44;87.94
72921;BME280;61064;51.654;5.476;2022-12-07T11:48:28;101692.13;;;6.25;87.81
72921;BME280;61064;51.654;5.476;2022-12-07T11:51:03;101696.81;;;6.32;88.02
72921;BME280;61064;51.654;5.476;2022-12-07T11:53:41;101685.50;;;6.36;87.93
72921;BME280;61064;51.654;5.476;2022-12-07T11:56:15;101712.78;;;6.59;87.89
72921;BME280;61064;51.654;5.476;2022-12-07T12:03:53;101711.47;;;6.97;87.03
72921;BME280;61064;51.654;5.476;2022-12-07T12:06:21;101705.47;;;7.01;86.81
72921;BME280;61064;51.654;5.476;2022-12-07T12:08:55;101655.19;;;6.76;86.42
72921;BME280;61064;51.654;5.476;2022-12-07T12:23:00;101716.16;;;7.29;86.24
72921;BME280;61064;51.654;5.476;2022-12-07T12:25:40;101711.53;;;7.24;86.35
72921;BME280;61064;51.654;5.476;2022-12-07T12:28:23;101702.59;;;7.20;86.15
72921;BME280;61064;51.654;5.476;2022-12-07T12:34:00;101712.63;;;7.30;86.51
72921;BME280;61064;51.654;5.476;2022-12-07T12:36:28;101709.28;;;7.36;86.37
72921;BME280;61064;51.654;5.476;2022-12-07T12:46:59;101693.03;;;7.79;86.12
72921;BME280;61064;51.654;5.476;2022-12-07T12:52:27;101696.28;;;7.99;85.61
72921;BME280;61064;51.654;5.476;2022-12-07T12:55:13;101618.31;;;7.61;84.62
72921;BME280;61064;51.654;5.476;2022-12-07T12:57:39;101657.84;;;7.83;84.77
72921;BME280;61064;51.654;5.476;2022-12-07T13:00:22;101636.13;;;7.66;84.59
72921;BME280;61064;51.654;5.476;2022-12-07T13:02:53;101670.44;;;7.90;84.74
72921;BME280;61064;51.654;5.476;2022-12-07T13:05:30;101669.72;;;7.96;84.60
72921;BME280;61064;51.654;5.476;2022-12-07T13:07:58;101632.19;;;7.82;84.65
72921;BME280;61064;51.654;5.476;2022-12-07T13:26:39;101650.13;;;8.20;83.51
72921;BME280;61064;51.654;5.476;2022-12-07T13:31:37;101619.75;;;8.09;83.27
72921;BME280;61064;51.654;5.476;2022-12-07T13:34:05;101633.19;;;8.15;83.01
72921;BME280;61064;51.654;5.476;2022-12-07T13:36:37;101605.13;;;7.92;82.84
72921;BME280;61064;51.654;5.476;2022-12-07T13:39:19;101642.75;;;8.10;82.73
72921;BME280;61064;51.654;5.476;2022-12-07T13:41:53;101594.19;;;7.80;82.63
72921;BME280;61064;51.654;5.476;2022-12-07T13:44:19;101578.66;;;7.64;82.90
72921;BME280;61064;51.654;5.476;2022-12-07T13:49:57;101626.94;;;7.83;82.63
72921;BME280;61064;51.654;5.476;2022-12-07T13:52:29;101622.38;;;7.78;82.72
72921;BME280;61064;51.654;5.476;2022-12-07T13:57:32;101624.75;;;7.69;82.72
72921;BME280;61064;51.654;5.476;2022-12-07T14:00:00;101621.16;;;7.67;82.64
72921;BME280;61064;51.654;5.476;2022-12-07T14:02:34;101605.66;;;7.50;82.86
72921;BME280;61064;51.654;5.476;2022-12-07T14:07:57;101619.81;;;7.52;82.38
72921;BME280;61064;51.654;5.476;2022-12-07T14:10:25;101605.50;;;7.46;82.46
72921;BME280;61064;51.654;5.476;2022-12-07T14:12:51;101615.94;;;7.41;82.65
72921;BME280;61064;51.654;5.476;2022-12-07T14:15:23;101606.03;;;7.34;82.49
72921;BME280;61064;51.654;5.476;2022-12-07T14:17:50;101607.56;;;7.28;82.88
72921;BME280;61064;51.654;5.476;2022-12-07T14:20:34;101626.53;;;7.15;82.85
72921;BME280;61064;51.654;5.476;2022-12-07T14:23:00;101648.53;;;7.12;82.98
72921;BME280;61064;51.654;5.476;2022-12-07T14:25:44;101596.13;;;6.75;82.56
72921;BME280;61064;51.654;5.476;2022-12-07T14:28:25;101638.63;;;6.80;82.69
72921;BME280;61064;51.654;5.476;2022-12-07T14:30:52;101638.75;;;6.59;82.94
72921;BME280;61064;51.654;5.476;2022-12-07T14:33:18;101640.09;;;6.48;82.93
72921;BME280;61064;51.654;5.476;2022-12-07T14:35:43;101632.53;;;6.33;83.22
72921;BME280;61064;51.654;5.476;2022-12-07T14:38:09;101631.34;;;6.25;83.41
72921;BME280;61064;51.654;5.476;2022-12-07T14:40:34;101625.75;;;6.16;83.66
72921;BME280;61064;51.654;5.476;2022-12-07T14:43:19;101616.59;;;6.06;83.87
72921;BME280;61064;51.654;5.476;2022-12-07T14:45:48;101618.09;;;6.00;84.06
72921;BME280;61064;51.654;5.476;2022-12-07T14:48:15;101564.09;;;5.69;83.84
72921;BME280;61064;51.654;5.476;2022-12-07T14:50:45;101594.78;;;5.88;84.25
72921;BME280;61064;51.654;5.476;2022-12-07T14:56:30;101574.19;;;5.79;83.74
72921;BME280;61064;51.654;5.476;2022-12-07T14:58:55;101598.06;;;5.82;83.38
72921;BME280;61064;51.654;5.476;2022-12-07T15:01:20;101590.88;;;5.78;83.76
72921;BME280;61064;51.654;5.476;2022-12-07T15:03:46;101530.50;;;5.41;83.79
72921;BME280;61064;51.654;5.476;2022-12-07T15:06:16;101592.47;;;5.75;83.91
72921;BME280;61064;51.654;5.476;2022-12-07T15:09:00;101530.25;;;5.35;83.86
72921;BME280;61064;51.654;5.476;2022-12-07T15:11:27;101557.91;;;5.45;83.59
72921;BME280;61064;51.654;5.476;2022-12-07T15:13:53;101576.50;;;5.48;83.58
72921;BME280;61064;51.654;5.476;2022-12-07T15:16:34;101584.22;;;5.43;83.58
72921;BME280;61064;51.654;5.476;2022-12-07T15:19:01;101603.97;;;5.53;83.83
72921;BME280;61064;51.654;5.476;2022-12-07T15:21:26;101566.97;;;5.29;83.73
72921;BME280;61064;51.654;5.476;2022-12-07T15:23:52;101533.88;;;5.15;83.56